createdAt,value
2019-02-12T00:00:57.297Z,99394.00
2019-02-12T00:05:02.970Z,99403.12
2019-02-12T00:09:10.289Z,99405.33
2019-02-12T00:13:15.978Z,99405.38
2019-02-12T00:17:21.823Z,99409.06
2019-02-12T00:21:28.476Z,99427.06
2019-02-12T00:25:34.276Z,99427.58
2019-02-12T00:29:39.916Z,99430.95
2019-02-12T00:33:45.593Z,99426.17
2019-02-12T00:37:51.314Z,99434.10
2019-02-12T00:41:57.005Z,99443.05
2019-02-12T00:46:02.687Z,99439.05
2019-02-12T00:50:11.556Z,99446.98
2019-02-12T00:54:18.207Z,99445.34
2019-02-12T00:58:23.892Z,99436.71
2019-02-12T01:02:29.561Z,99439.14
2019-02-12T01:06:35.293Z,99447.59
2019-02-12T01:10:41.031Z,99454.34
2019-02-12T01:14:46.704Z,99471.20
2019-02-12T01:18:52.370Z,99485.66
2019-02-12T01:22:58.057Z,99491.80
2019-02-12T01:27:03.741Z,99494.06
2019-02-12T01:31:09.422Z,99498.16
2019-02-12T01:35:15.136Z,99513.88
2019-02-12T01:39:20.940Z,99507.49
2019-02-12T01:43:26.637Z,99504.52
2019-02-12T01:47:32.352Z,99503.03
2019-02-12T01:51:38.047Z,99503.05
2019-02-12T01:55:43.732Z,99498.36
2019-02-12T01:59:49.405Z,99496.09
2019-02-12T02:03:55.093Z,99492.67
2019-02-12T02:08:00.792Z,99502.69
2019-02-12T02:12:06.487Z,99504.67
2019-02-12T02:16:12.157Z,99502.75
2019-02-12T02:20:17.854Z,99499.77
2019-02-12T02:24:25.188Z,99512.20
2019-02-12T02:28:30.949Z,99504.91
2019-02-12T02:32:36.617Z,99510.95
2019-02-12T02:36:42.322Z,99516.05
2019-02-12T02:40:48.013Z,99525.95
2019-02-12T02:44:53.679Z,99533.75
2019-02-12T02:48:59.400Z,99533.27
2019-02-12T02:53:05.093Z,99553.01
2019-02-12T02:57:10.757Z,99554.36
2019-02-12T03:01:16.439Z,99548.95
2019-02-12T03:05:22.163Z,99560.06
2019-02-12T03:09:27.831Z,99573.77
2019-02-12T03:13:33.877Z,99575.05
2019-02-12T03:17:39.696Z,99579.88
2019-02-12T03:21:45.382Z,99581.80
2019-02-12T03:25:52.690Z,99583.88
2019-02-12T03:29:58.354Z,99585.56
2019-02-12T03:34:04.046Z,99600.92
2019-02-12T03:38:09.701Z,99606.47
2019-02-12T03:42:15.447Z,99604.71
2019-02-12T03:46:21.277Z,99614.58
2019-02-12T03:50:26.957Z,99611.40
2019-02-12T03:54:32.705Z,99613.73
2019-02-12T03:58:38.434Z,99616.73
2019-02-12T04:03:07.987Z,99622.47
2019-02-12T04:07:13.668Z,99618.86
2019-02-12T04:11:19.415Z,99618.42
2019-02-12T04:15:25.184Z,99613.95
2019-02-12T04:19:30.877Z,99621.27
2019-02-12T04:23:36.702Z,99617.64
2019-02-12T04:27:43.521Z,99623.12
2019-02-12T04:31:49.202Z,99626.66
2019-02-12T04:35:54.856Z,99626.97
2019-02-12T04:40:00.532Z,99633.80
2019-02-12T04:44:06.210Z,99633.66
2019-02-12T04:48:11.885Z,99628.80
2019-02-12T04:52:17.569Z,99630.17
2019-02-12T04:56:23.274Z,99623.97
2019-02-12T05:00:30.619Z,99616.57
2019-02-12T05:04:36.319Z,99619.44
2019-02-12T05:09:15.226Z,99618.66
2019-02-12T05:13:20.919Z,99625.81
2019-02-12T05:17:26.609Z,99622.84
2019-02-12T05:21:32.295Z,99627.81
2019-02-12T05:25:38.065Z,99617.20
2019-02-12T05:29:43.751Z,99624.27
2019-02-12T05:33:49.460Z,99624.67
2019-02-12T05:37:55.180Z,99624.61
2019-02-12T05:42:00.839Z,99623.77
2019-02-12T05:46:06.528Z,99631.59
2019-02-12T05:50:15.384Z,99634.06
2019-02-12T05:54:21.118Z,99638.05
2019-02-12T05:58:26.805Z,99653.99
2019-02-12T06:02:32.471Z,99659.59
2019-02-12T06:06:38.159Z,99653.99
2019-02-12T06:10:46.039Z,99658.89
2019-02-12T06:14:51.725Z,99655.78
2019-02-12T06:18:57.438Z,99653.72
2019-02-12T06:23:04.241Z,99668.08
2019-02-12T06:27:10.089Z,99663.17
2019-02-12T06:31:15.780Z,99660.41
2019-02-12T06:35:21.529Z,99654.77
2019-02-12T06:39:27.201Z,99660.38
2019-02-12T06:43:32.896Z,99659.67
2019-02-12T06:47:38.579Z,99668.22
2019-02-12T06:51:44.365Z,99672.06
2019-02-12T06:55:50.047Z,99672.84
2019-02-12T06:59:55.729Z,99678.31
2019-02-12T07:04:01.447Z,99683.08
2019-02-12T07:08:31.312Z,99691.56
2019-02-12T07:12:56.514Z,99681.16
2019-02-12T07:17:09.338Z,99687.00
2019-02-12T07:21:46.596Z,99679.33
2019-02-12T07:26:02.505Z,99683.02
2019-02-12T07:30:36.508Z,99696.52
2019-02-12T07:34:58.831Z,99703.92
2019-02-12T07:39:27.099Z,99709.33
2019-02-12T07:44:05.588Z,99732.95
2019-02-12T07:48:50.404Z,99731.16
2019-02-12T07:53:15.543Z,99737.84
2019-02-12T07:57:49.889Z,99747.34
2019-02-12T08:02:05.684Z,99757.09
2019-02-12T08:06:36.476Z,99757.39
2019-02-12T08:11:21.259Z,99762.87
2019-02-12T08:15:48.876Z,99767.23
2019-02-12T08:20:21.504Z,99768.64
2019-02-12T08:24:47.689Z,99772.69
2019-02-12T08:29:30.261Z,99780.71
2019-02-12T08:34:04.662Z,99786.47
2019-02-12T08:38:26.494Z,99786.49
2019-02-12T08:42:48.671Z,99781.46
2019-02-12T08:47:15.174Z,99788.33
2019-02-12T08:51:34.231Z,99795.25
2019-02-12T08:56:10.831Z,99796.80
2019-02-12T09:00:26.853Z,99810.35
2019-02-12T09:04:39.835Z,99822.34
2019-02-12T09:09:07.760Z,99833.03
2019-02-12T09:13:32.760Z,99824.81
2019-02-12T09:18:14.195Z,99823.17
2019-02-12T09:22:48.225Z,99830.30
2019-02-12T09:27:04.043Z,99832.20
2019-02-12T09:31:39.474Z,99832.18
2019-02-12T09:36:03.002Z,99832.20
2019-02-12T09:40:46.316Z,99823.32
2019-02-12T09:45:14.299Z,99834.22
2019-02-12T09:49:55.701Z,99834.12
2019-02-12T09:54:32.665Z,99832.74
2019-02-12T09:59:04.803Z,99838.97
2019-02-12T10:03:40.519Z,99845.41
2019-02-12T10:08:19.406Z,99844.39
2019-02-12T10:12:41.888Z,99860.69
2019-02-12T10:16:58.116Z,99852.31
2019-02-12T10:21:32.184Z,99853.70
2019-02-12T10:25:38.061Z,99853.11
2019-02-12T10:29:59.987Z,99866.58
2019-02-12T10:34:06.042Z,99865.27
2019-02-12T10:42:17.468Z,99863.17
2019-02-12T10:46:23.175Z,99865.84
2019-02-12T10:50:28.942Z,99879.94
2019-02-12T10:54:34.635Z,99870.92
2019-02-12T10:58:41.321Z,99873.57
2019-02-12T11:02:55.384Z,99865.62
2019-02-12T11:07:01.082Z,99863.30
2019-02-12T11:11:06.850Z,99858.28
2019-02-12T11:15:12.761Z,99857.56
2019-02-12T11:19:18.440Z,99864.66
2019-02-12T11:23:24.156Z,99858.66
2019-02-12T11:27:29.874Z,99859.31
2019-02-12T11:31:35.565Z,99855.62
2019-02-12T11:35:41.562Z,99845.84
2019-02-12T11:39:47.251Z,99850.91
2019-02-12T11:43:54.595Z,99865.73
2019-02-12T11:48:02.466Z,99865.94
2019-02-12T11:52:08.259Z,99865.07
2019-02-12T11:56:13.925Z,99864.58
2019-02-12T12:00:21.268Z,99871.20
2019-02-12T12:04:26.960Z,99878.03
2019-02-12T12:08:35.051Z,99879.50
2019-02-12T12:12:40.835Z,99876.61
2019-02-12T12:16:46.524Z,99878.97
2019-02-12T12:20:52.222Z,99872.18
2019-02-12T12:24:57.935Z,99876.50
2019-02-12T12:29:03.637Z,99876.27
2019-02-12T12:33:09.658Z,99881.36
2019-02-12T12:37:15.393Z,99874.23
2019-02-12T12:41:21.079Z,99879.23
2019-02-12T12:45:26.863Z,99881.15
2019-02-12T12:49:32.558Z,99882.80
2019-02-12T12:53:38.271Z,99879.14
2019-02-12T12:57:43.974Z,99882.91
2019-02-12T13:01:49.697Z,99894.89
2019-02-12T13:05:56.626Z,99881.63
2019-02-12T13:10:02.302Z,99873.89
2019-02-12T13:14:07.982Z,99881.55
2019-02-12T13:18:13.676Z,99879.71
2019-02-12T13:22:19.372Z,99881.38
2019-02-12T13:26:25.188Z,99882.84
2019-02-12T13:30:30.858Z,99885.45
2019-02-12T13:34:36.537Z,99875.86
2019-02-12T13:38:42.237Z,99881.97
2019-02-12T13:42:47.941Z,99875.09
2019-02-12T13:46:53.653Z,99881.89
2019-02-12T13:50:59.363Z,99876.27
2019-02-12T13:55:07.621Z,99874.59
2019-02-12T13:59:13.314Z,99876.65
2019-02-12T14:03:22.531Z,99881.08
2019-02-12T14:07:27.771Z,99880.00
2019-02-12T14:11:33.453Z,99881.82
2019-02-12T14:15:39.228Z,99887.58
2019-02-12T14:19:44.910Z,99882.98
2019-02-12T14:23:50.623Z,99888.66
2019-02-12T14:27:57.961Z,99894.73
2019-02-12T14:32:03.741Z,99897.55
2019-02-12T14:36:09.505Z,99907.78
2019-02-12T14:40:17.103Z,99907.35
2019-02-12T14:44:22.791Z,99908.80
2019-02-12T14:48:28.494Z,99912.95
2019-02-12T14:52:34.215Z,99915.94
2019-02-12T14:56:39.929Z,99908.65
2019-02-12T15:00:45.625Z,99908.81
2019-02-12T15:04:51.323Z,99908.68
2019-02-12T15:08:57.025Z,99899.72
2019-02-12T15:13:02.713Z,99903.09
2019-02-12T15:17:08.427Z,99898.48
2019-02-12T15:21:14.208Z,99896.00
2019-02-12T15:25:19.961Z,99892.56
2019-02-12T15:29:25.688Z,99894.95
2019-02-12T15:33:31.399Z,99902.95
2019-02-12T15:37:37.096Z,99893.77
2019-02-12T15:41:42.804Z,99900.35
2019-02-12T15:45:48.492Z,99906.28
2019-02-12T15:49:54.213Z,99911.20
2019-02-12T15:53:59.883Z,99902.20
2019-02-12T15:58:06.318Z,99904.34
2019-02-12T16:02:13.682Z,99899.88
2019-02-12T16:06:21.042Z,99903.78
2019-02-12T16:10:26.896Z,99907.33
2019-02-12T16:14:33.779Z,99915.00
2019-02-12T16:18:39.575Z,99917.97
2019-02-12T16:22:45.352Z,99916.19
2019-02-12T16:26:52.302Z,99929.17
2019-02-12T16:30:57.969Z,99922.97
2019-02-12T16:35:04.321Z,99934.30
2019-02-12T16:39:10.012Z,99930.68
2019-02-12T16:43:18.637Z,99934.02
2019-02-12T16:47:24.438Z,99933.92
2019-02-12T16:52:20.811Z,99943.89
2019-02-12T16:56:26.406Z,99951.36
2019-02-12T17:01:18.009Z,99955.42
2019-02-12T17:05:24.735Z,99963.03
2019-02-12T17:10:15.179Z,99972.27
2019-02-12T17:14:20.974Z,99976.34
2019-02-12T17:18:26.982Z,99990.58
2019-02-12T17:22:32.643Z,99990.65
2019-02-12T17:26:38.347Z,99992.86
2019-02-12T17:31:18.815Z,100002.14
2019-02-12T17:35:24.946Z,100003.11
2019-02-12T17:39:30.729Z,100014.16
2019-02-12T17:43:36.438Z,100007.88
2019-02-12T17:47:42.118Z,100013.44
2019-02-12T17:52:17.727Z,100023.80
2019-02-12T17:56:24.963Z,100021.72
2019-02-12T18:00:37.197Z,100026.45
2019-02-12T18:05:19.537Z,100026.67
2019-02-12T18:09:26.068Z,100026.61
2019-02-12T18:13:33.762Z,100021.33
2019-02-12T18:17:40.882Z,100024.95
2019-02-12T18:22:17.703Z,100030.89
2019-02-12T18:26:23.433Z,100036.17
2019-02-12T18:35:41.499Z,100038.09
2019-02-12T18:39:47.175Z,100040.52
2019-02-12T18:43:52.943Z,100052.28
2019-02-12T18:47:58.660Z,100053.30
2019-02-12T18:52:04.517Z,100055.36
2019-02-12T18:56:10.283Z,100056.13
2019-02-12T19:00:21.443Z,100054.28
2019-02-12T19:04:27.384Z,100061.28
2019-02-12T19:08:33.138Z,100056.33
2019-02-12T19:12:39.567Z,100054.78
2019-02-12T19:16:47.049Z,100052.59
2019-02-12T19:20:52.818Z,100049.20
2019-02-12T19:24:58.589Z,100054.14
2019-02-12T19:29:04.334Z,100063.55
2019-02-12T19:33:10.111Z,100062.12
2019-02-12T19:37:15.888Z,100071.53
2019-02-12T19:41:21.655Z,100056.92
2019-02-12T19:45:27.528Z,100058.07
2019-02-12T19:49:36.292Z,100058.07
2019-02-12T19:54:19.686Z,100070.77
2019-02-12T19:58:25.636Z,100081.19
2019-02-12T20:03:16.712Z,100085.67
2019-02-12T20:07:22.519Z,100082.95
2019-02-12T20:12:16.294Z,100097.78
2019-02-12T20:16:22.048Z,100093.59
2019-02-12T20:21:16.049Z,100078.18
2019-02-12T20:25:21.825Z,100078.88
2019-02-12T20:30:15.144Z,100067.13
2019-02-12T20:34:20.823Z,100067.77
2019-02-12T20:43:20.249Z,100061.49
2019-02-12T20:47:26.173Z,100068.57
2019-02-12T20:51:31.853Z,100056.38
2019-02-12T20:55:40.590Z,100048.02
2019-02-12T21:00:22.488Z,100058.50
2019-02-12T21:04:28.351Z,100067.77
2019-02-12T21:09:15.966Z,100076.25
2019-02-12T21:13:21.676Z,100088.08
2019-02-12T21:17:27.577Z,100087.55
2019-02-12T21:21:33.368Z,100079.95
2019-02-12T21:25:39.837Z,100090.08
2019-02-12T21:30:19.855Z,100085.53
2019-02-12T21:34:25.660Z,100097.53
2019-02-12T21:38:31.572Z,100102.44
2019-02-12T21:42:38.627Z,100109.08
2019-02-12T21:46:44.337Z,100103.11
2019-02-12T21:51:19.450Z,100109.11
2019-02-12T21:55:25.787Z,100099.02
2019-02-12T21:59:31.494Z,100106.91
2019-02-12T22:03:39.172Z,100112.29
2019-02-12T22:07:46.882Z,100118.48
2019-02-12T22:12:19.454Z,100115.88
2019-02-12T22:16:25.266Z,100113.53
2019-02-12T22:20:30.955Z,100111.77
2019-02-12T22:24:38.251Z,100113.58
2019-02-12T22:28:43.933Z,100113.00
2019-02-12T22:33:07.734Z,100108.57
2019-02-12T22:37:13.427Z,100105.13
2019-02-12T22:41:19.117Z,100115.83
2019-02-12T22:45:26.302Z,100116.53
2019-02-12T22:49:32.163Z,100112.30
2019-02-12T22:53:37.895Z,100108.11
2019-02-12T22:57:49.423Z,100111.30
2019-02-12T23:01:54.038Z,100113.31
2019-02-12T23:06:00.017Z,100105.20
2019-02-12T23:10:08.958Z,100102.31
2019-02-12T23:14:14.837Z,100094.20
2019-02-12T23:18:20.527Z,100088.31
2019-02-12T23:22:26.222Z,100087.02
2019-02-12T23:26:32.096Z,100081.73
2019-02-12T23:30:37.873Z,100074.05
2019-02-12T23:34:43.618Z,100072.38
2019-02-12T23:38:49.300Z,100072.00
2019-02-12T23:42:56.064Z,100075.80
2019-02-12T23:47:01.757Z,100084.13
2019-02-12T23:51:07.443Z,100080.09
2019-02-12T23:55:13.128Z,100079.69
2019-02-12T23:59:18.827Z,100083.48
